Time;durP1;ratioP1;P1;durP2;ratioP2;P2;SDS_P1;SDS_P2;PMS_P1;PMS_P2;Temp;Humidity;BMP_temperature;BMP_pressure;BME280_temperature;BME280_humidity;BME280_pressure;Samples;Min_cycle;Max_cycle;Signal;HPM_P1;HPM_P2
2023/05/11 00:01:08;;;;;;;2.42;1.55;;;10.90;99.90;;;;;;5013723;28;20057;-74
2023/05/11 00:03:34;;;;;;;2.78;1.73;;;10.80;99.90;;;;;;5014010;28;20048;-75
2023/05/11 00:06:00;;;;;;;1.45;1.35;;;10.90;99.90;;;;;;5011861;28;20084;-74
2023/05/11 00:08:26;;;;;;;1.75;1.50;;;10.80;99.90;;;;;;5010643;28;20057;-74
2023/05/11 00:10:51;;;;;;;1.40;1.30;;;10.80;99.90;;;;;;5009514;28;20037;-75
2023/05/11 00:13:19;;;;;;;1.65;1.55;;;10.80;99.90;;;;;;5006371;28;20050;-76
2023/05/11 00:15:44;;;;;;;1.25;1.25;;;10.80;99.90;;;;;;5014082;28;20046;-74
2023/05/11 00:18:10;;;;;;;1.30;1.20;;;10.80;99.90;;;;;;5008960;28;20036;-74
2023/05/11 00:20:36;;;;;;;1.83;1.73;;;10.80;99.90;;;;;;5011500;28;20018;-74
2023/05/11 00:23:01;;;;;;;1.92;1.50;;;10.80;99.90;;;;;;5014332;28;20037;-73
2023/05/11 00:25:27;;;;;;;2.67;1.40;;;10.80;99.90;;;;;;5012392;28;20034;-74
2023/05/11 00:27:52;;;;;;;1.50;1.20;;;10.70;99.90;;;;;;5007386;28;20085;-74
2023/05/11 00:30:18;;;;;;;2.15;1.40;;;10.80;99.90;;;;;;5009612;28;20401;-74
2023/05/11 00:32:44;;;;;;;2.10;1.40;;;10.80;99.90;;;;;;5025314;28;20042;-75
2023/05/11 00:35:11;;;;;;;1.55;1.35;;;10.70;99.90;;;;;;5012772;28;20036;-75
2023/05/11 00:37:40;;;;;;;1.63;1.17;;;10.80;99.90;;;;;;5009749;28;20030;-74
2023/05/11 00:40:06;;;;;;;1.58;1.48;;;10.80;99.90;;;;;;5013147;28;20042;-74
2023/05/11 00:42:33;;;;;;;1.50;1.40;;;10.80;99.90;;;;;;5009482;28;20045;-75
2023/05/11 00:44:58;;;;;;;1.65;1.30;;;10.80;99.90;;;;;;5012009;28;20121;-74
2023/05/11 00:47:24;;;;;;;1.30;1.20;;;10.80;99.90;;;;;;5010193;28;20141;-73
2023/05/11 00:49:52;;;;;;;1.25;1.20;;;10.80;99.90;;;;;;5013215;28;20045;-74
2023/05/11 00:52:20;;;;;;;1.40;1.30;;;10.70;99.90;;;;;;5012171;28;20026;-72
2023/05/11 00:54:46;;;;;;;1.40;1.30;;;10.60;99.90;;;;;;5013006;28;20281;-73
2023/05/11 00:57:13;;;;;;;10.43;3.72;;;10.60;99.90;;;;;;5012219;28;20045;-74
2023/05/11 00:59:39;;;;;;;16.63;5.60;;;10.60;99.90;;;;;;5010996;28;21025;-74
2023/05/11 01:02:05;;;;;;;8.43;3.47;;;10.60;99.90;;;;;;5010111;28;20073;-75
2023/05/11 01:04:31;;;;;;;8.63;3.53;;;10.60;99.90;;;;;;5011491;28;20030;-74
2023/05/11 01:07:15;;;;;;;4.85;2.35;;;10.60;99.90;;;;;;5013799;28;20046;-75
2023/05/11 01:09:54;;;;;;;5.47;2.35;;;10.60;99.90;;;;;;5014115;28;20066;-75
2023/05/11 01:12:38;;;;;;;1.58;1.25;;;10.50;99.90;;;;;;5015102;28;20379;-76
2023/05/11 01:15:13;;;;;;;3.17;1.55;;;10.60;99.90;;;;;;5007793;28;20030;-75
2023/05/11 01:18:03;;;;;;;1.30;1.20;;;10.50;99.90;;;;;;5016213;28;20037;-75
2023/05/11 01:20:29;;;;;;;4.03;1.20;;;10.50;99.90;;;;;;5010970;28;20056;-75
2023/05/11 01:23:07;;;;;;;4.85;2.60;;;10.50;99.90;;;;;;5016821;28;20034;-75
2023/05/11 01:25:32;;;;;;;2.77;1.70;;;10.50;99.90;;;;;;5007634;28;20524;-75
2023/05/11 01:28:26;;;;;;;3.00;1.50;;;10.40;99.90;;;;;;5016510;28;20288;-75
2023/05/11 01:31:02;;;;;;;1.40;1.30;;;10.50;99.90;;;;;;5010992;28;20030;-76
2023/05/11 01:33:32;;;;;;;2.28;1.40;;;10.50;99.90;;;;;;5015355;28;20092;-75
2023/05/11 01:36:04;;;;;;;2.40;1.50;;;10.50;99.90;;;;;;5012888;28;20386;-75
2023/05/11 01:38:33;;;;;;;1.33;1.23;;;10.50;99.90;;;;;;5010187;28;20033;-76
2023/05/11 01:41:00;;;;;;;1.48;1.35;;;10.40;99.90;;;;;;5011348;28;20030;-74
2023/05/11 01:43:29;;;;;;;1.38;1.10;;;10.50;99.90;;;;;;5011560;28;20026;-75
2023/05/11 01:45:59;;;;;;;1.55;1.23;;;10.50;99.90;;;;;;5016940;28;20485;-75
2023/05/11 01:48:28;;;;;;;1.20;1.20;;;10.50;99.90;;;;;;5008228;28;20046;-75
2023/05/11 01:50:58;;;;;;;1.33;1.17;;;10.40;99.90;;;;;;5007719;28;20034;-76
2023/05/11 01:53:26;;;;;;;1.48;1.38;;;10.40;99.90;;;;;;5011901;28;20042;-75
2023/05/11 01:55:54;;;;;;;2.45;1.30;;;10.40;99.90;;;;;;5018635;28;20034;-75
2023/05/11 01:58:21;;;;;;;1.52;1.27;;;10.40;99.90;;;;;;5014228;28;20585;-75
2023/05/11 02:00:47;;;;;;;1.35;1.35;;;10.40;99.90;;;;;;5015199;28;20398;-74
2023/05/11 02:03:15;;;;;;;1.92;1.40;;;10.40;99.90;;;;;;5012320;28;20041;-75
2023/05/11 02:05:42;;;;;;;1.20;1.20;;;10.40;99.90;;;;;;5013209;28;20034;-75
2023/05/11 02:08:09;;;;;;;1.10;1.10;;;10.40;99.90;;;;;;5009325;28;20070;-75
2023/05/11 02:10:37;;;;;;;1.50;1.33;;;10.40;99.90;;;;;;5010291;28;20034;-75
2023/05/11 02:13:04;;;;;;;1.85;1.30;;;10.30;99.90;;;;;;5010306;28;20127;-75
2023/05/11 02:15:32;;;;;;;1.40;1.30;;;10.30;99.90;;;;;;5010936;28;20021;-75
2023/05/11 02:17:58;;;;;;;1.40;1.30;;;10.40;99.90;;;;;;5016969;28;20044;-75
2023/05/11 02:20:24;;;;;;;1.77;1.67;;;10.40;99.90;;;;;;5014698;28;20026;-75
2023/05/11 02:22:52;;;;;;;1.58;1.48;;;10.40;99.90;;;;;;5009775;28;20045;-75
2023/05/11 02:25:18;;;;;;;1.83;1.40;;;10.40;99.90;;;;;;5012635;28;20037;-75
2023/05/11 02:27:44;;;;;;;1.58;1.48;;;10.50;99.90;;;;;;5009630;28;20153;-75
2023/05/11 02:30:10;;;;;;;3.30;1.77;;;10.40;99.90;;;;;;5011141;28;20509;-75
2023/05/11 02:32:40;;;;;;;1.88;1.48;;;10.40;99.90;;;;;;5010599;28;20034;-75
2023/05/11 02:35:20;;;;;;;1.92;1.80;;;10.30;99.90;;;;;;5013979;28;20054;-75
2023/05/11 02:37:48;;;;;;;1.67;1.55;;;10.30;99.90;;;;;;5016617;28;20062;-76
2023/05/11 02:40:23;;;;;;;2.20;1.50;;;10.30;99.90;;;;;;5011387;28;20044;-74
2023/05/11 02:42:53;;;;;;;1.55;1.45;;;10.40;99.90;;;;;;5012592;28;20076;-75
2023/05/11 02:45:19;;;;;;;1.80;1.67;;;10.40;99.90;;;;;;5014774;28;20113;-74
2023/05/11 02:47:51;;;;;;;1.60;1.50;;;10.30;99.90;;;;;;5013648;28;20757;-74
2023/05/11 02:50:18;;;;;;;2.63;1.48;;;10.30;99.90;;;;;;5010682;28;20054;-75
2023/05/11 02:52:48;;;;;;;1.63;1.50;;;10.30;99.90;;;;;;5012459;28;20526;-74
2023/05/11 02:55:16;;;;;;;1.60;1.50;;;10.30;99.90;;;;;;5027131;28;20086;-75
2023/05/11 02:57:42;;;;;;;1.70;1.50;;;10.40;99.90;;;;;;5014830;28;20011;-75
2023/05/11 03:00:10;;;;;;;1.88;1.70;;;10.30;99.90;;;;;;5014677;28;20042;-75
2023/05/11 03:02:35;;;;;;;1.60;1.50;;;10.40;99.90;;;;;;5014576;28;20045;-76
2023/05/11 03:05:01;;;;;;;2.10;1.63;;;10.40;99.90;;;;;;5011899;28;20046;-75
2023/05/11 03:07:27;;;;;;;3.13;1.50;;;10.40;99.90;;;;;;5007615;28;20030;-75
2023/05/11 03:09:53;;;;;;;1.90;1.70;;;10.40;99.90;;;;;;5006609;28;20093;-77
2023/05/11 03:12:20;;;;;;;2.35;1.60;;;10.40;99.90;;;;;;5012203;28;20026;-75
2023/05/11 03:14:47;;;;;;;2.22;1.60;;;10.40;99.90;;;;;;5012653;28;20046;-76
2023/05/11 03:17:14;;;;;;;1.42;1.33;;;10.30;99.90;;;;;;5010029;28;20736;-76
2023/05/11 03:19:41;;;;;;;1.73;1.50;;;10.40;99.90;;;;;;5013590;28;20120;-75
2023/05/11 03:22:08;;;;;;;2.35;1.35;;;10.40;99.90;;;;;;5014575;28;20107;-75
2023/05/11 03:24:34;;;;;;;1.98;1.63;;;10.30;99.90;;;;;;5011975;28;20038;-76
2023/05/11 03:27:02;;;;;;;1.85;1.75;;;10.30;99.90;;;;;;5009668;28;20038;-75
2023/05/11 03:29:28;;;;;;;1.75;1.65;;;10.40;99.90;;;;;;5012911;28;20029;-75
2023/05/11 03:31:54;;;;;;;2.22;1.63;;;10.30;99.90;;;;;;5014926;28;20406;-75
2023/05/11 03:34:20;;;;;;;1.48;1.35;;;10.30;99.90;;;;;;5014930;28;20037;-75
2023/05/11 03:36:49;;;;;;;1.42;1.33;;;10.30;99.90;;;;;;5013892;28;20038;-75
2023/05/11 03:39:16;;;;;;;1.75;1.60;;;10.30;99.90;;;;;;5013440;28;20038;-76
2023/05/11 03:41:44;;;;;;;4.15;1.58;;;10.30;99.90;;;;;;5014882;28;20029;-75
2023/05/11 03:44:12;;;;;;;3.47;1.65;;;10.20;99.90;;;;;;5018100;28;20057;-75
2023/05/11 03:46:39;;;;;;;2.00;1.80;;;10.30;99.90;;;;;;5016527;28;20048;-74
2023/05/11 03:49:06;;;;;;;1.60;1.50;;;10.20;99.90;;;;;;5014597;28;20498;-75
2023/05/11 03:51:33;;;;;;;2.53;1.60;;;10.30;99.90;;;;;;5017497;28;20154;-75
2023/05/11 03:53:59;;;;;;;1.90;1.50;;;10.30;99.90;;;;;;5016749;28;20048;-75
2023/05/11 03:56:25;;;;;;;2.35;1.73;;;10.30;99.90;;;;;;5017987;28;20120;-76
2023/05/11 03:58:52;;;;;;;2.00;1.58;;;10.20;99.90;;;;;;5016511;28;20014;-76
2023/05/11 04:01:18;;;;;;;1.80;1.70;;;10.20;99.90;;;;;;5015651;28;20132;-75
2023/05/11 04:03:48;;;;;;;1.80;1.70;;;10.30;99.90;;;;;;5016275;28;20123;-76
2023/05/11 04:06:15;;;;;;;2.35;1.50;;;10.30;99.90;;;;;;5012783;28;20049;-75
2023/05/11 04:08:40;;;;;;;2.10;1.77;;;10.30;99.90;;;;;;5017348;28;20543;-75
2023/05/11 04:11:06;;;;;;;1.98;1.70;;;10.30;99.90;;;;;;5015812;28;20026;-75
2023/05/11 04:13:32;;;;;;;2.03;1.60;;;10.30;99.90;;;;;;5013462;28;20034;-76
2023/05/11 04:15:57;;;;;;;1.77;1.67;;;10.30;99.90;;;;;;5013361;28;20092;-76
2023/05/11 04:18:23;;;;;;;2.30;2.10;;;10.30;99.90;;;;;;5012090;28;20046;-76
2023/05/11 04:20:48;;;;;;;1.83;1.67;;;10.30;99.90;;;;;;5013329;28;20688;-76
2023/05/11 04:23:15;;;;;;;2.28;1.95;;;10.30;99.90;;;;;;5015957;28;20026;-76
2023/05/11 04:25:40;;;;;;;2.03;1.92;;;10.30;99.90;;;;;;5013930;28;20130;-76
2023/05/11 04:28:06;;;;;;;2.95;1.85;;;10.30;99.90;;;;;;5014735;28;20061;-75
2023/05/11 04:30:31;;;;;;;2.55;1.90;;;10.30;99.90;;;;;;5016236;28;20034;-75
2023/05/11 04:32:57;;;;;;;3.17;2.00;;;10.30;99.90;;;;;;5014659;28;20822;-75
2023/05/11 04:35:23;;;;;;;2.08;1.88;;;10.30;99.90;;;;;;5017404;28;20117;-75
2023/05/11 04:37:49;;;;;;;2.20;1.90;;;10.30;99.90;;;;;;5012510;28;20038;-76
2023/05/11 04:40:15;;;;;;;2.03;1.80;;;10.30;99.90;;;;;;5012456;28;20161;-75
2023/05/11 04:42:41;;;;;;;1.92;1.75;;;10.30;99.90;;;;;;5012520;28;20030;-75
2023/05/11 04:45:07;;;;;;;2.00;1.80;;;10.30;99.90;;;;;;5013406;28;20076;-75
2023/05/11 04:47:32;;;;;;;2.22;2.03;;;10.30;99.90;;;;;;5026070;28;20045;-76
2023/05/11 04:49:58;;;;;;;2.88;2.20;;;10.30;99.90;;;;;;5014800;28;20042;-76
2023/05/11 04:52:23;;;;;;;2.92;2.33;;;10.30;99.90;;;;;;5013445;28;20026;-76
2023/05/11 04:54:49;;;;;;;1.80;1.70;;;10.30;99.90;;;;;;5014496;28;20030;-75
2023/05/11 04:57:15;;;;;;;2.13;1.77;;;10.30;99.90;;;;;;5014098;28;20026;-75
2023/05/11 04:59:40;;;;;;;2.35;2.10;;;10.30;99.90;;;;;;5013714;28;20061;-75
2023/05/11 05:02:06;;;;;;;2.35;1.80;;;10.30;99.90;;;;;;5014959;28;20030;-76
2023/05/11 05:04:31;;;;;;;2.13;1.92;;;10.30;99.90;;;;;;5011914;28;20033;-75
2023/05/11 05:06:57;;;;;;;2.25;2.05;;;10.30;99.90;;;;;;5009411;28;20046;-75
2023/05/11 05:09:23;;;;;;;1.90;1.80;;;10.30;99.90;;;;;;5011756;28;20037;-75
2023/05/11 05:11:48;;;;;;;2.58;1.95;;;10.40;99.90;;;;;;5014789;28;20034;-75
2023/05/11 05:14:14;;;;;;;4.22;2.03;;;10.40;99.90;;;;;;5015174;28;20117;-75
2023/05/11 05:16:39;;;;;;;2.78;1.80;;;10.40;99.90;;;;;;5012918;28;20038;-75
2023/05/11 05:19:05;;;;;;;1.88;1.77;;;10.40;99.90;;;;;;5013575;28;20029;-75
2023/05/11 05:21:31;;;;;;;2.20;2.05;;;10.40;99.90;;;;;;5015212;28;21468;-75
2023/05/11 05:23:57;;;;;;;2.40;2.00;;;10.40;99.90;;;;;;5010773;28;20029;-75
2023/05/11 05:26:22;;;;;;;2.00;1.77;;;10.40;99.90;;;;;;5014206;28;20479;-75
2023/05/11 05:28:48;;;;;;;3.08;2.00;;;10.40;99.90;;;;;;5011581;28;20038;-75
2023/05/11 05:31:14;;;;;;;2.72;1.85;;;10.40;99.90;;;;;;5013201;28;20406;-74
2023/05/11 05:33:39;;;;;;;2.25;2.03;;;10.40;99.90;;;;;;5013964;28;20380;-75
2023/05/11 05:36:05;;;;;;;4.10;2.22;;;10.40;99.90;;;;;;5016829;28;20029;-75
2023/05/11 05:38:31;;;;;;;2.22;1.92;;;10.40;99.90;;;;;;5013915;28;20033;-75
2023/05/11 05:40:57;;;;;;;2.65;1.95;;;10.50;99.90;;;;;;5010295;28;20022;-75
2023/05/11 05:43:23;;;;;;;2.05;1.95;;;10.50;99.90;;;;;;5028652;28;20105;-75
2023/05/11 05:45:48;;;;;;;2.65;2.20;;;10.50;99.90;;;;;;5010804;28;20045;-75
2023/05/11 05:48:14;;;;;;;3.08;2.00;;;10.50;99.90;;;;;;5015808;28;20074;-76
2023/05/11 05:50:40;;;;;;;2.33;2.10;;;10.50;99.90;;;;;;5012453;28;20034;-77
2023/05/11 05:53:06;;;;;;;2.35;1.92;;;10.50;99.90;;;;;;5010958;28;20378;-75
2023/05/11 05:55:32;;;;;;;2.35;2.15;;;10.40;99.90;;;;;;5011092;28;20041;-75
2023/05/11 05:57:58;;;;;;;2.47;2.20;;;10.50;99.90;;;;;;5005783;28;20038;-75
2023/05/11 06:00:23;;;;;;;1.90;1.80;;;10.50;99.90;;;;;;5011684;28;20459;-75
2023/05/11 06:02:49;;;;;;;2.20;2.00;;;10.50;99.90;;;;;;5027956;28;20038;-76
2023/05/11 06:05:14;;;;;;;1.88;1.77;;;10.50;99.90;;;;;;5030824;28;20034;-75
2023/05/11 06:07:40;;;;;;;2.20;2.00;;;10.60;99.90;;;;;;5006751;28;20062;-76
2023/05/11 06:10:06;;;;;;;2.20;2.00;;;10.60;99.90;;;;;;5011329;28;20080;-75
2023/05/11 06:12:31;;;;;;;3.47;2.03;;;10.50;99.90;;;;;;5014485;28;20037;-75
2023/05/11 06:14:57;;;;;;;3.05;2.70;;;10.60;99.90;;;;;;5010370;28;20694;-76
2023/05/11 06:17:23;;;;;;;3.58;2.58;;;10.60;99.90;;;;;;5014212;28;20061;-75
2023/05/11 06:19:49;;;;;;;3.17;2.60;;;10.60;99.90;;;;;;5014987;28;20421;-75
2023/05/11 06:22:15;;;;;;;2.63;2.30;;;10.70;99.90;;;;;;5013568;28;20129;-75
2023/05/11 06:24:40;;;;;;;4.13;2.72;;;10.70;99.90;;;;;;5014872;28;20030;-75
2023/05/11 06:27:06;;;;;;;3.50;2.40;;;10.70;99.90;;;;;;5013415;28;20540;-75
2023/05/11 06:29:32;;;;;;;3.83;2.92;;;10.70;99.90;;;;;;5008616;28;20365;-73
2023/05/11 06:31:58;;;;;;;3.22;2.25;;;10.70;99.90;;;;;;5011783;28;20060;-75
2023/05/11 06:34:23;;;;;;;2.55;2.25;;;10.80;99.90;;;;;;5013636;28;20034;-75
2023/05/11 06:36:50;;;;;;;3.17;2.60;;;10.80;99.90;;;;;;5011027;28;20094;-75
2023/05/11 06:39:16;;;;;;;3.13;2.30;;;10.80;99.90;;;;;;5026013;28;20030;-74
2023/05/11 06:41:41;;;;;;;3.08;2.58;;;10.80;99.90;;;;;;5013091;28;20045;-76
2023/05/11 06:44:07;;;;;;;2.38;2.17;;;10.80;99.90;;;;;;5011904;28;20137;-78
2023/05/11 06:46:33;;;;;;;3.33;2.35;;;10.90;99.90;;;;;;5015459;28;20057;-75
2023/05/11 06:48:59;;;;;;;3.38;2.08;;;10.90;99.90;;;;;;5014534;28;20070;-74
2023/05/11 06:51:25;;;;;;;2.42;2.22;;;10.90;99.90;;;;;;5015331;28;20036;-76
2023/05/11 06:53:51;;;;;;;3.67;2.70;;;10.90;99.90;;;;;;5014034;28;20097;-75
2023/05/11 06:56:16;;;;;;;2.63;2.42;;;10.90;99.90;;;;;;5016163;28;20117;-76
2023/05/11 06:58:42;;;;;;;2.70;2.45;;;10.90;99.90;;;;;;5013667;28;20044;-76
2023/05/11 07:01:09;;;;;;;3.22;2.88;;;10.90;99.90;;;;;;5011504;28;20054;-75
2023/05/11 07:03:35;;;;;;;3.30;3.00;;;10.90;99.90;;;;;;5011778;28;20037;-75
2023/05/11 07:06:01;;;;;;;3.72;2.75;;;10.90;99.90;;;;;;5013453;28;20056;-75
2023/05/11 07:08:27;;;;;;;2.65;2.45;;;11.00;99.90;;;;;;5015438;28;20034;-75
2023/05/11 07:10:53;;;;;;;3.10;2.80;;;11.00;99.90;;;;;;5017297;28;20033;-74
2023/05/11 07:13:19;;;;;;;2.60;2.38;;;11.00;99.90;;;;;;5016471;28;20030;-76
2023/05/11 07:15:48;;;;;;;2.63;2.25;;;10.90;99.90;;;;;;5015618;28;20109;-75
2023/05/11 07:18:14;;;;;;;2.30;2.10;;;10.90;99.90;;;;;;5016389;28;20025;-75
2023/05/11 07:20:40;;;;;;;2.95;2.55;;;10.80;99.90;;;;;;5016517;28;20030;-75
2023/05/11 07:23:06;;;;;;;2.60;2.40;;;10.90;99.90;;;;;;5018696;28;20042;-75
2023/05/11 07:25:31;;;;;;;2.58;2.33;;;11.00;99.90;;;;;;5017576;28;20018;-75
2023/05/11 07:27:57;;;;;;;2.58;2.33;;;11.10;99.90;;;;;;5014500;28;20469;-76
2023/05/11 07:30:23;;;;;;;2.70;2.50;;;11.10;99.90;;;;;;5016610;28;20020;-75
2023/05/11 07:32:48;;;;;;;2.58;2.30;;;11.20;99.90;;;;;;5013018;28;20046;-76
2023/05/11 07:35:14;;;;;;;2.60;2.33;;;11.20;99.90;;;;;;5015746;28;20030;-76
2023/05/11 07:37:41;;;;;;;2.55;2.35;;;11.20;99.90;;;;;;5019136;28;20088;-77
2023/05/11 07:40:07;;;;;;;2.50;2.25;;;11.30;99.90;;;;;;5017081;28;20101;-75
2023/05/11 07:42:33;;;;;;;4.22;3.83;;;11.30;99.90;;;;;;5019353;28;20042;-74
2023/05/11 07:44:59;;;;;;;2.70;2.50;;;11.30;99.90;;;;;;5018488;28;20029;-75
2023/05/11 07:47:24;;;;;;;2.55;2.22;;;11.40;99.90;;;;;;5018192;28;20046;-76
2023/05/11 07:49:50;;;;;;;3.08;2.72;;;11.40;99.90;;;;;;5011692;28;20062;-75
2023/05/11 07:52:16;;;;;;;2.40;2.20;;;11.60;99.90;;;;;;5020159;28;20053;-75
2023/05/11 07:54:42;;;;;;;5.25;2.42;;;11.60;99.90;;;;;;5020321;28;20029;-75
2023/05/11 07:57:10;;;;;;;4.40;2.90;;;11.50;99.90;;;;;;5017279;28;20037;-75
2023/05/11 07:59:36;;;;;;;2.72;2.53;;;11.60;99.90;;;;;;5019418;28;20180;-75
2023/05/11 08:02:03;;;;;;;3.38;2.40;;;11.60;99.90;;;;;;5017862;28;20573;-76
2023/05/11 08:04:29;;;;;;;2.72;2.30;;;11.60;99.90;;;;;;5017881;28;20026;-75
2023/05/11 08:06:55;;;;;;;2.50;2.30;;;11.60;99.90;;;;;;5017241;28;20066;-74
2023/05/11 08:09:21;;;;;;;3.10;2.80;;;11.60;99.90;;;;;;5020178;28;20025;-75
2023/05/11 08:11:48;;;;;;;2.80;2.55;;;11.70;99.90;;;;;;5018708;28;20025;-74
2023/05/11 08:14:14;;;;;;;2.35;2.15;;;11.80;99.90;;;;;;5019568;28;20105;-75
2023/05/11 08:16:40;;;;;;;2.65;2.45;;;11.80;99.90;;;;;;5014848;28;20048;-75
2023/05/11 08:19:06;;;;;;;2.90;2.30;;;11.80;99.90;;;;;;5014619;28;20094;-76
2023/05/11 08:21:32;;;;;;;2.83;2.28;;;11.70;99.90;;;;;;5018098;28;20033;-75
2023/05/11 08:23:57;;;;;;;3.35;2.58;;;11.70;99.90;;;;;;5029456;28;20015;-77
2023/05/11 08:26:24;;;;;;;3.10;2.40;;;11.80;99.90;;;;;;5017148;28;20097;-75
2023/05/11 08:28:51;;;;;;;2.40;2.20;;;11.80;99.90;;;;;;5018638;28;20034;-74
2023/05/11 08:31:17;;;;;;;3.23;2.67;;;11.90;99.90;;;;;;5016411;28;20049;-74
2023/05/11 08:33:43;;;;;;;2.92;2.67;;;11.80;99.90;;;;;;5014397;28;20030;-76
2023/05/11 08:36:10;;;;;;;2.38;2.17;;;11.90;99.90;;;;;;5011981;28;20053;-76
2023/05/11 08:38:35;;;;;;;2.15;1.85;;;11.90;99.90;;;;;;5014092;28;20568;-75
2023/05/11 08:41:01;;;;;;;1.92;1.83;;;11.90;99.90;;;;;;5018776;28;20064;-75
2023/05/11 08:43:29;;;;;;;1.25;1.15;;;11.90;99.90;;;;;;5018170;28;20458;-76
2023/05/11 08:45:59;;;;;;;1.63;1.38;;;11.90;99.90;;;;;;5016077;28;20029;-75
2023/05/11 08:48:25;;;;;;;1.10;1.10;;;11.90;99.90;;;;;;5019310;28;20046;-75
2023/05/11 08:50:53;;;;;;;1.42;1.33;;;11.90;99.90;;;;;;5018094;28;20081;-75
2023/05/11 08:53:19;;;;;;;1.17;1.17;;;11.90;99.90;;;;;;5019123;28;20038;-76
2023/05/11 08:55:46;;;;;;;3.47;2.28;;;11.90;99.90;;;;;;5016049;28;20034;-75
2023/05/11 08:58:19;;;;;;;2.13;1.92;;;12.00;99.90;;;;;;5018646;28;20026;-75
2023/05/11 09:00:47;;;;;;;1.60;1.50;;;12.00;99.90;;;;;;5014248;28;20095;-76
2023/05/11 09:03:14;;;;;;;1.75;1.20;;;12.10;99.90;;;;;;5014509;28;20476;-75
2023/05/11 09:05:41;;;;;;;1.75;1.35;;;12.10;99.90;;;;;;5018361;28;20184;-75
2023/05/11 09:08:09;;;;;;;1.58;1.48;;;12.10;99.90;;;;;;5007886;28;20034;-75
2023/05/11 09:10:35;;;;;;;2.57;1.60;;;12.10;99.90;;;;;;5014152;28;20042;-75
2023/05/11 09:13:01;;;;;;;1.45;1.40;;;11.90;99.90;;;;;;5016413;28;20041;-75
2023/05/11 09:15:26;;;;;;;1.35;1.35;;;11.90;99.90;;;;;;5017197;28;20026;-74
2023/05/11 09:17:52;;;;;;;1.30;1.20;;;11.80;99.90;;;;;;5016689;28;20382;-75
2023/05/11 09:20:27;;;;;;;1.30;1.20;;;11.80;99.90;;;;;;5014962;28;20089;-75
2023/05/11 09:22:53;;;;;;;1.58;1.40;;;11.80;99.90;;;;;;5018056;28;20946;-75
2023/05/11 09:25:20;;;;;;;1.40;1.30;;;11.80;99.90;;;;;;5033278;28;20120;-75
2023/05/11 09:27:46;;;;;;;1.00;1.00;;;11.80;99.90;;;;;;5015433;28;20025;-74
2023/05/11 09:30:21;;;;;;;2.47;1.00;;;11.80;99.90;;;;;;5011337;28;20034;-76
2023/05/11 09:32:54;;;;;;;1.23;1.15;;;11.90;99.90;;;;;;5010301;28;20102;-75
2023/05/11 09:35:27;;;;;;;1.20;1.10;;;11.90;99.90;;;;;;5015152;28;20022;-75
2023/05/11 09:38:04;;;;;;;0.90;0.90;;;11.90;99.90;;;;;;5017705;28;20017;-75
2023/05/11 09:40:42;;;;;;;1.25;1.15;;;12.00;99.90;;;;;;5017003;28;20030;-75
2023/05/11 09:43:19;;;;;;;1.30;1.30;;;12.00;99.90;;;;;;5015356;28;20489;-76
2023/05/11 09:45:46;;;;;;;1.45;1.30;;;12.10;99.90;;;;;;5014299;28;20088;-75
2023/05/11 09:48:21;;;;;;;2.65;1.00;;;12.00;99.90;;;;;;5012487;28;20033;-75
2023/05/11 09:50:51;;;;;;;0.80;0.80;;;12.00;99.90;;;;;;5016482;28;20062;-76
2023/05/11 09:53:17;;;;;;;1.08;1.05;;;12.00;99.90;;;;;;5016751;28;20046;-76
2023/05/11 09:55:54;;;;;;;0.90;0.90;;;12.00;99.90;;;;;;5016529;28;20006;-76
2023/05/11 09:58:22;;;;;;;1.38;1.10;;;11.90;99.90;;;;;;5015446;28;20026;-76
2023/05/11 10:00:55;;;;;;;1.75;1.13;;;12.00;99.90;;;;;;5010340;28;20038;-76
2023/05/11 10:03:20;;;;;;;1.80;1.13;;;12.00;99.90;;;;;;5012919;28;20016;-76
2023/05/11 10:05:58;;;;;;;1.10;1.00;;;12.10;99.90;;;;;;5014624;28;20113;-75
2023/05/11 10:08:33;;;;;;;0.90;0.90;;;12.10;99.90;;;;;;5013844;28;20052;-75
2023/05/11 10:11:01;;;;;;;0.88;0.88;;;12.10;99.90;;;;;;5018097;28;20066;-76
2023/05/11 10:13:28;;;;;;;1.50;0.93;;;12.20;99.90;;;;;;5006786;28;20034;-76
2023/05/11 10:15:55;;;;;;;1.67;1.00;;;12.20;99.90;;;;;;5017159;28;20065;-75
2023/05/11 10:18:21;;;;;;;0.90;0.90;;;12.30;99.90;;;;;;5008001;28;20034;-76
2023/05/11 10:20:47;;;;;;;1.00;1.00;;;12.30;99.90;;;;;;5014897;28;20032;-75
2023/05/11 10:23:14;;;;;;;3.30;1.00;;;12.30;99.90;;;;;;5013565;28;20037;-75
2023/05/11 10:25:40;;;;;;;1.40;1.10;;;12.30;99.90;;;;;;5018970;28;20826;-75
2023/05/11 10:28:06;;;;;;;1.38;1.10;;;12.30;99.90;;;;;;5014738;28;20196;-76
2023/05/11 10:30:33;;;;;;;1.15;1.00;;;12.30;99.90;;;;;;5013991;28;20985;-76
2023/05/11 10:33:00;;;;;;;1.45;0.93;;;12.30;99.90;;;;;;5012384;28;20052;-75
2023/05/11 10:35:26;;;;;;;0.80;0.80;;;12.20;99.90;;;;;;5016489;28;20038;-75
2023/05/11 10:37:52;;;;;;;1.58;1.00;;;12.20;99.90;;;;;;5017144;28;20030;-75
2023/05/11 10:40:18;;;;;;;1.23;1.00;;;12.20;99.90;;;;;;5016521;28;20029;-75
2023/05/11 10:43:02;;;;;;;1.75;1.08;;;12.20;99.90;;;;;;5012938;28;20064;-75
2023/05/11 10:46:13;;;;;;;1.08;1.00;;;12.20;99.90;;;;;;5014013;28;20045;-75
2023/05/11 10:49:13;;;;;;;0.95;0.95;;;12.20;99.90;;;;;;4994284;28;20054;-75
2023/05/11 10:51:44;;;;;;;0.90;0.90;;;12.10;99.90;;;;;;5016692;28;20109;-76
2023/05/11 10:54:29;;;;;;;1.00;1.00;;;12.00;99.90;;;;;;5014714;28;20034;-77
2023/05/11 10:57:10;;;;;;;2.30;0.93;;;12.00;99.90;;;;;;5014803;28;20017;-75
2023/05/11 11:00:08;;;;;;;0.80;0.80;;;11.90;99.90;;;;;;5008321;28;20034;-75
2023/05/11 11:02:33;;;;;;;1.05;1.05;;;11.80;99.90;;;;;;5015777;28;20034;-76
2023/05/11 11:05:04;;;;;;;1.00;1.00;;;11.70;99.90;;;;;;5010548;28;20060;-77
2023/05/11 11:07:50;;;;;;;0.90;0.90;;;11.80;99.90;;;;;;5016895;28;20037;-76
2023/05/11 11:10:39;;;;;;;0.93;0.93;;;11.90;99.90;;;;;;4998745;28;20050;-75
2023/05/11 11:13:06;;;;;;;1.00;1.00;;;11.70;99.90;;;;;;5015095;28;20036;-75
2023/05/11 11:15:56;;;;;;;1.52;1.42;;;11.80;99.90;;;;;;5016224;28;20037;-75
2023/05/11 11:18:26;;;;;;;1.40;1.30;;;11.80;99.90;;;;;;5008999;28;20037;-75
2023/05/11 11:20:54;;;;;;;1.20;1.17;;;11.80;99.90;;;;;;5014030;28;20030;-76
2023/05/11 11:23:38;;;;;;;1.53;1.43;;;11.80;99.90;;;;;;5013512;28;20034;-75
2023/05/11 11:26:04;;;;;;;1.02;1.02;;;11.80;99.90;;;;;;5009871;28;20152;-76
2023/05/11 11:29:00;;;;;;;1.35;1.00;;;11.80;99.90;;;;;;5011556;28;20032;-75
2023/05/11 11:31:31;;;;;;;0.93;0.90;;;11.90;99.90;;;;;;5014580;28;20509;-76
2023/05/11 11:34:17;;;;;;;1.25;1.15;;;11.70;99.90;;;;;;5016144;28;20026;-76
2023/05/11 11:36:59;;;;;;;1.02;1.02;;;11.60;99.90;;;;;;5009994;28;20096;-75
2023/05/11 11:39:26;;;;;;;1.33;1.10;;;11.40;99.90;;;;;;5011294;28;20030;-76
2023/05/11 11:42:06;;;;;;;2.42;1.00;;;11.50;99.90;;;;;;5016065;28;20042;-76
2023/05/11 11:44:36;;;;;;;1.75;1.08;;;11.50;99.90;;;;;;5019092;28;20032;-76
2023/05/11 11:47:20;;;;;;;1.00;1.00;;;11.40;99.90;;;;;;5011361;28;20096;-76
2023/05/11 11:49:50;;;;;;;1.05;1.05;;;11.40;99.90;;;;;;5016520;28;20057;-76
2023/05/11 11:52:28;;;;;;;0.90;0.90;;;11.60;99.90;;;;;;5015075;28;20030;-75
2023/05/11 11:54:55;;;;;;;1.60;1.00;;;11.50;99.90;;;;;;5013841;28;20037;-75
2023/05/11 11:57:36;;;;;;;0.80;0.80;;;11.50;99.90;;;;;;5018346;28;20500;-76
2023/05/11 12:00:05;;;;;;;1.08;1.08;;;11.60;99.90;;;;;;5012242;28;20057;-75
2023/05/11 12:02:34;;;;;;;0.90;0.90;;;11.50;99.90;;;;;;5030529;28;20037;-75
2023/05/11 12:05:09;;;;;;;0.82;0.82;;;11.50;99.90;;;;;;5017771;28;20645;-75
2023/05/11 12:07:38;;;;;;;0.80;0.80;;;11.60;99.90;;;;;;5015618;28;20036;-75
2023/05/11 12:10:04;;;;;;;0.90;0.90;;;11.70;99.90;;;;;;5019624;28;20022;-76
2023/05/11 12:12:30;;;;;;;1.00;1.00;;;11.60;99.90;;;;;;5015172;28;20033;-76
2023/05/11 12:14:56;;;;;;;0.73;0.73;;;11.50;99.90;;;;;;5016849;28;20034;-76
2023/05/11 12:17:28;;;;;;;0.90;0.90;;;11.40;99.90;;;;;;5017374;28;20029;-75
2023/05/11 12:19:55;;;;;;;0.90;0.90;;;11.50;99.90;;;;;;5018791;28;20423;-75
2023/05/11 12:22:24;;;;;;;0.88;0.88;;;11.50;99.90;;;;;;5019728;28;20037;-75
2023/05/11 12:24:54;;;;;;;0.80;0.80;;;11.60;99.90;;;;;;5015324;28;20046;-75
2023/05/11 12:27:20;;;;;;;1.05;0.80;;;11.40;99.90;;;;;;5019948;28;20042;-76
2023/05/11 12:29:50;;;;;;;0.82;0.82;;;11.40;99.90;;;;;;5018104;28;20042;-76
2023/05/11 12:32:28;;;;;;;16.85;15.52;;;11.30;99.90;;;;;;5019669;28;20100;-76
2023/05/11 12:35:12;;;;;;;1.00;1.00;;;11.50;99.90;;;;;;5015691;28;20034;-76
2023/05/11 12:37:42;;;;;;;1.00;1.00;;;11.60;99.90;;;;;;5017532;28;20564;-76
2023/05/11 12:40:10;;;;;;;1.83;1.08;;;11.70;99.90;;;;;;5019353;28;20093;-76
2023/05/11 12:42:35;;;;;;;1.75;1.08;;;11.80;99.90;;;;;;5018200;28;20628;-76
2023/05/11 12:45:05;;;;;;;1.60;1.00;;;11.90;99.90;;;;;;5018138;28;20070;-77
2023/05/11 12:47:31;;;;;;;1.00;1.00;;;11.80;99.90;;;;;;5014811;28;20900;-75
2023/05/11 12:49:57;;;;;;;1.17;1.10;;;11.60;99.90;;;;;;5013776;28;20049;-77
2023/05/11 12:52:23;;;;;;;1.00;0.90;;;11.70;99.90;;;;;;5017532;28;20395;-75